Portada
METAR-TAF:

METAR-TAF

Aeroports :

Kostanay, Kazakhstan

latitud: 53-12-23N, longitud: 063-33-03E, altitud: 182 m

Observació

L'informe es va fer fa 31 minuts, a les 20:00 UTC
Vent 16 kt del Nord/Nord-Oest
Temperatura 15°C
Humitat 59%
Pressió 1025 hPa
Visibilitat 10 km o més
sense núvols per sota de 1500 mi sense presència de cumulonimbus.

METAR: UAUU 252000Z 34008MPS CAVOK 15/07 Q1025 R15/CLRD70 NOSIG RMK QFE752/1003

Hora: 02:31 (20:31 UTC)

Pronòstic

L'informe es va fer fa 3 hores i 31 minuts, a les 17:00 UTC
Pronòstic vàlid del 25 a les 18 UTC al 26 a les 03 UTC
Vent 19 kt del Nord/Nord-Oest
Visibilitat 10 km o més
Cel ennuvolat a una alçada de 2000 ft
Evolucionant progressivament
l' 25 a les 20 UTC al 25 a les 21 UTC
Vent 19 kt del Nord/Nord-Est

TAF: UAUU 251700Z 2518/2603 33010MPS 9999 BKN020 BECMG 2520/2521 02010MPS

Observacions i pronòstics meteorològics de més de 4000 aeroports (METAR i TAF).

Les estacions disponibles són els punts grocs i vermells al mapa.

Posi el ratolí al punt desitjat per veure el nom de l'estació.

Feu clic per veure les observacions i els pronòstics meteorològics.

Per canviar el mapa: feu clic els botons verds amb una creu de color negre per apropar; al botó verd amb un guió per allunyar la imatge; o en les fletxes verdes per a mapes adjacents.


METAR-TAF: